Djeneba — WDD7832 — position and weather

sailwx.info

Track history (hours):
 
Tides and Currents Weather Stations Pressure Air Temp Water Temp Dewpoint Dewpoint Depression Visibility Wind Speed Wind Dir Waves Ship Positions

Djeneba

Owner: Keller, James R, Gig Harbor, WA. More information available from US FCC via Universal Licensing System and Coast Guard Vessel Documentation Center.

Last reported at 2015-Aug-02 03:34 UTC. Time now 2015-Aug-04 09:46 UTC.
Position N 47°19' W 122°27'.

Length 19 m.

Type: Pleasure craft. MMSI: 367191910.

Date/timePositionNaut miles runAvg speedWind from/ knotsBaromVisibWave heightAir tempDewpointWater temp
2015-Aug-02 03:34N 47°19' W 122°27'2 0.3
2015-Aug-01 19:33N 47°21' W 122°29'  
2015-Jul-26 20:26N 47°18' W 122°27'8 9.4
2015-Jul-26 19:33N 47°26' W 122°23'1110.2
2015-Jul-26 18:26N 47°37' W 122°26'0 9.4
2015-Jul-26 18:24N 47°38' W 122°26'910.4
2015-Jul-26 17:33N 47°46' W 122°25'10 9.9
2015-Jul-26 16:33N 47°56' W 122°21'34 1.9
2015-Jul-25 22:17N 48°29' W 122°32'11 9.4
2015-Jul-25 21:09N 48°32' W 122°48'15 5.4
2015-Jul-25 18:26N 48°37' W 123°09'0 0.0
2015-Jul-25 12:05N 48°37' W 123°09'0 0.0
2015-Jul-25 11:15N 48°37' W 123°09'0 0.0
2015-Jul-25 08:35N 48°37' W 123°09'0 0.0
2015-Jul-25 03:44N 48°37' W 123°09'0 0.0
2015-Jul-25 03:24N 48°37' W 123°09'0 0.0
2015-Jul-25 01:59N 48°37' W 123°09'  
Track history (hours):
 
Tides and Currents Weather Stations Pressure Air Temp Water Temp Dewpoint Dewpoint Depression Visibility Wind Speed Wind Dir Waves Ship Positions

Djeneba

Owner: Keller, James R, Gig Harbor, WA. More information available from US FCC via Universal Licensing System and Coast Guard Vessel Documentation Center.

Last reported at 2015-Aug-02 03:34 UTC. Time now 2015-Aug-04 09:46 UTC.
Position N 47°19' W 122°27'.

Length 19 m.

Type: Pleasure craft. MMSI: 367191910.

Date/timePositionNaut miles runAvg speedWind from/ knotsBaromVisibWave heightAir tempDewpointWater temp
2015-Aug-02 03:34N 47°19' W 122°27'2 0.3
2015-Aug-01 19:33N 47°21' W 122°29'  
2015-Jul-26 20:26N 47°18' W 122°27'8 9.4
2015-Jul-26 19:33N 47°26' W 122°23'1110.2
2015-Jul-26 18:26N 47°37' W 122°26'0 9.4
2015-Jul-26 18:24N 47°38' W 122°26'910.4
2015-Jul-26 17:33N 47°46' W 122°25'10 9.9
2015-Jul-26 16:33N 47°56' W 122°21'34 1.9
2015-Jul-25 22:17N 48°29' W 122°32'11 9.4
2015-Jul-25 21:09N 48°32' W 122°48'15 5.4
2015-Jul-25 18:26N 48°37' W 123°09'0 0.0
2015-Jul-25 12:05N 48°37' W 123°09'0 0.0
2015-Jul-25 11:15N 48°37' W 123°09'0 0.0
2015-Jul-25 08:35N 48°37' W 123°09'0 0.0
2015-Jul-25 03:44N 48°37' W 123°09'0 0.0
2015-Jul-25 03:24N 48°37' W 123°09'0 0.0
2015-Jul-25 01:59N 48°37' W 123°09'  

Dump ship's entire track history